createdAt,value
2019-02-25T04:16:38.045Z,1032.48
2019-02-25T04:17:38.035Z,1032.49
2019-02-25T04:18:38.023Z,1032.49
2019-02-25T04:19:38.013Z,1032.49
2019-02-25T04:20:38.001Z,1032.47
2019-02-25T04:21:37.994Z,1032.43
2019-02-25T04:22:37.981Z,1032.43
2019-02-25T04:23:37.966Z,1032.35
2019-02-25T04:24:37.957Z,1032.39
2019-02-25T04:25:37.952Z,1032.36
2019-02-25T04:26:37.938Z,1032.39
2019-02-25T04:27:37.925Z,1032.39
2019-02-25T04:28:37.909Z,1032.40
2019-02-25T04:29:37.901Z,1032.37
2019-02-25T04:30:37.892Z,1032.42
2019-02-25T04:31:37.876Z,1032.46
2019-02-25T04:32:37.865Z,1032.51
2019-02-25T04:33:37.854Z,1032.47
2019-02-25T04:34:37.847Z,1032.47
2019-02-25T04:35:37.839Z,1032.49
2019-02-25T04:36:37.820Z,1032.46
2019-02-25T04:37:37.809Z,1032.41
2019-02-25T04:38:37.806Z,1032.41
2019-02-25T04:39:37.795Z,1032.42
2019-02-25T04:40:37.779Z,1032.42
2019-02-25T04:41:37.775Z,1032.49
2019-02-25T04:42:37.766Z,1032.47
2019-02-25T04:43:37.742Z,1032.53
2019-02-25T04:44:37.731Z,1032.60
2019-02-25T04:45:37.721Z,1032.59
2019-02-25T04:46:37.713Z,1032.62
2019-02-25T04:47:37.699Z,1032.66
2019-02-25T04:48:37.699Z,1032.69
2019-02-25T04:49:37.673Z,1032.70
2019-02-25T04:50:37.678Z,1032.63
2019-02-25T04:51:37.654Z,1032.63
2019-02-25T04:52:37.647Z,1032.66
2019-02-25T04:53:37.630Z,1032.73
2019-02-25T04:54:37.617Z,1032.69
2019-02-25T04:55:37.606Z,1032.70
2019-02-25T04:56:37.602Z,1032.75
2019-02-25T04:57:37.590Z,1032.76
2019-02-25T04:58:37.573Z,1032.77
2019-02-25T04:59:37.563Z,1032.75
2019-02-25T05:00:37.554Z,1032.76
2019-02-25T05:01:37.548Z,1032.69
2019-02-25T05:02:37.535Z,1032.70
2019-02-25T05:03:37.535Z,1032.65
2019-02-25T05:04:37.507Z,1032.64
2019-02-25T05:05:37.497Z,1032.56
2019-02-25T05:06:37.483Z,1032.62
2019-02-25T05:07:37.478Z,1032.65
2019-02-25T05:08:37.461Z,1032.63
2019-02-25T05:09:37.452Z,1032.62
2019-02-25T05:10:37.438Z,1032.59
2019-02-25T05:11:37.429Z,1032.69
2019-02-25T05:12:37.415Z,1032.70
2019-02-25T05:13:37.413Z,1032.72
2019-02-25T05:14:37.393Z,1032.79
2019-02-25T05:15:37.389Z,1032.81
2019-02-25T05:16:37.375Z,1032.77
2019-02-25T05:17:37.366Z,1032.86
2019-02-25T05:18:37.356Z,1032.77
2019-02-25T05:21:37.314Z,1032.80
2019-02-25T05:22:37.669Z,1032.80
2019-02-25T05:23:37.292Z,1032.86
2019-02-25T05:24:37.284Z,1032.87
2019-02-25T05:25:37.277Z,1032.83
2019-02-25T05:26:37.266Z,1032.87
2019-02-25T05:27:37.254Z,1032.83
2019-02-25T05:28:37.236Z,1032.81
2019-02-25T05:31:37.202Z,1032.83
2019-02-25T05:32:37.193Z,1032.77
2019-02-25T05:33:37.186Z,1032.78
2019-02-25T05:34:37.170Z,1032.76
2019-02-25T05:35:37.159Z,1032.80
2019-02-25T05:36:37.150Z,1032.80
2019-02-25T05:37:37.140Z,1032.91
2019-02-25T05:38:37.126Z,1032.86
2019-02-25T05:39:37.117Z,1032.87
2019-02-25T05:40:37.126Z,1032.82
2019-02-25T05:41:37.103Z,1032.75
2019-02-25T05:42:37.086Z,1032.83
2019-02-25T05:43:37.069Z,1032.81
2019-02-25T05:44:37.060Z,1032.80
2019-02-25T05:45:37.051Z,1032.84
2019-02-25T05:46:37.045Z,1032.84
2019-02-25T05:47:37.025Z,1032.82
2019-02-25T05:48:37.019Z,1032.80
2019-02-25T05:49:37.003Z,1032.86
2019-02-25T05:50:37.008Z,1032.84
2019-02-25T05:51:36.979Z,1032.86
2019-02-25T05:52:36.970Z,1032.86
2019-02-25T05:53:36.958Z,1032.88
2019-02-25T05:54:36.947Z,1032.91
2019-02-25T05:55:36.938Z,1032.91
2019-02-25T05:56:36.925Z,1032.91
2019-02-25T05:57:36.919Z,1032.90
2019-02-25T05:58:36.902Z,1032.85
2019-02-25T05:59:36.889Z,1032.89
2019-02-25T06:00:36.882Z,1032.96
2019-02-25T06:01:36.870Z,1032.92
2019-02-25T06:02:36.855Z,1032.95
2019-02-25T06:03:36.846Z,1032.94
2019-02-25T06:04:36.833Z,1032.93
2019-02-25T06:05:36.822Z,1032.94
2019-02-25T06:06:36.811Z,1032.95
2019-02-25T06:07:36.797Z,1032.94
2019-02-25T06:08:36.786Z,1032.99
2019-02-25T06:09:36.777Z,1032.99
2019-02-25T06:10:36.779Z,1032.98
2019-02-25T06:11:36.755Z,1033.00
2019-02-25T06:12:36.741Z,1032.95
2019-02-25T06:13:36.730Z,1032.99
2019-02-25T06:14:36.728Z,1032.94
2019-02-25T06:15:36.711Z,1032.95
2019-02-25T06:16:36.698Z,1032.90
2019-02-25T06:17:36.692Z,1032.89
2019-02-25T06:18:36.678Z,1032.95
2019-02-25T06:19:36.663Z,1032.90
2019-02-25T06:20:36.664Z,1032.93
2019-02-25T06:21:36.644Z,1032.93
2019-02-25T06:22:36.630Z,1032.97
2019-02-25T06:23:36.620Z,1033.00
2019-02-25T06:24:36.609Z,1032.97
2019-02-25T06:25:36.595Z,1032.95
2019-02-25T06:26:38.604Z,1032.97
2019-02-25T06:27:36.574Z,1033.00
2019-02-25T06:28:36.561Z,1033.02
2019-02-25T06:29:36.548Z,1033.01
2019-02-25T06:30:36.542Z,1032.96
2019-02-25T06:31:36.527Z,1033.00
2019-02-25T06:32:36.516Z,1032.97
2019-02-25T06:33:36.544Z,1033.01
2019-02-25T06:34:36.511Z,1033.01
2019-02-25T06:35:36.485Z,1033.06
2019-02-25T06:36:36.474Z,1033.05
2019-02-25T06:37:36.470Z,1033.01
2019-02-25T06:38:36.452Z,1033.01
2019-02-25T06:39:36.442Z,1033.04
2019-02-25T06:40:36.427Z,1033.03
2019-02-25T06:41:36.422Z,1033.02
2019-02-25T06:42:36.405Z,1033.02
2019-02-25T06:43:36.390Z,1033.10
2019-02-25T06:44:36.382Z,1033.13
2019-02-25T06:45:36.370Z,1033.13
2019-02-25T06:46:36.361Z,1033.18
2019-02-25T06:47:36.347Z,1033.18
2019-02-25T06:48:36.341Z,1033.19
2019-02-25T06:49:36.327Z,1033.20
2019-02-25T06:50:36.323Z,1033.19
2019-02-25T06:51:36.307Z,1033.21
2019-02-25T06:52:36.290Z,1033.26
2019-02-25T06:53:36.280Z,1033.26
2019-02-25T06:54:36.274Z,1033.28
2019-02-25T06:55:36.258Z,1033.29
2019-02-25T06:56:36.249Z,1033.33
2019-02-25T06:57:36.233Z,1033.32
2019-02-25T06:58:36.225Z,1033.37
2019-02-25T06:59:36.216Z,1033.36
2019-02-25T07:00:36.201Z,1033.36
2019-02-25T07:01:36.192Z,1033.38
2019-02-25T07:02:36.178Z,1033.41
2019-02-25T07:03:36.168Z,1033.42
2019-02-25T07:04:36.160Z,1033.42
2019-02-25T07:05:36.144Z,1033.42
2019-02-25T07:06:36.143Z,1033.39
2019-02-25T07:07:36.122Z,1033.47
2019-02-25T07:08:36.111Z,1033.53
2019-02-25T07:09:36.100Z,1033.47
2019-02-25T07:10:36.092Z,1033.52
2019-02-25T07:11:36.079Z,1033.51
2019-02-25T07:12:36.066Z,1033.49
2019-02-25T07:13:36.054Z,1033.53
2019-02-25T07:14:36.052Z,1033.51
2019-02-25T07:15:36.032Z,1033.46
2019-02-25T07:16:36.022Z,1033.42
2019-02-25T07:17:36.009Z,1033.40
2019-02-25T07:18:36.000Z,1033.42
2019-02-25T07:19:35.988Z,1033.41
2019-02-25T07:20:35.977Z,1033.36
2019-02-25T07:21:35.967Z,1033.42
2019-02-25T07:22:35.953Z,1033.41
2019-02-25T07:23:37.665Z,1033.46
2019-02-25T07:24:35.939Z,1033.46
2019-02-25T07:25:35.923Z,1033.49
2019-02-25T07:26:35.907Z,1033.48
2019-02-25T07:27:35.896Z,1033.49
2019-02-25T07:28:36.688Z,1033.57
2019-02-25T07:29:35.873Z,1033.53
2019-02-25T07:30:35.864Z,1033.53
2019-02-25T07:31:35.852Z,1033.49
2019-02-25T07:32:35.850Z,1033.44
2019-02-25T07:33:35.840Z,1033.45
2019-02-25T07:34:35.828Z,1033.51
2019-02-25T07:35:35.806Z,1033.49
2019-02-25T07:36:35.792Z,1033.54
2019-02-25T07:37:35.784Z,1033.61
2019-02-25T07:38:39.499Z,1033.60
2019-02-25T07:39:35.760Z,1033.56
2019-02-25T07:40:35.751Z,1033.60
2019-02-25T07:41:35.735Z,1033.53
2019-02-25T07:42:35.755Z,1033.59
2019-02-25T07:43:35.713Z,1033.51
2019-02-25T07:44:35.710Z,1033.57
2019-02-25T07:45:35.697Z,1033.53
2019-02-25T07:46:35.683Z,1033.56
2019-02-25T07:47:35.671Z,1033.50
2019-02-25T07:48:35.659Z,1033.58
2019-02-25T07:49:35.656Z,1033.55
2019-02-25T07:50:35.638Z,1033.61
2019-02-25T07:51:35.626Z,1033.56
2019-02-25T07:52:35.620Z,1033.61
2019-02-25T07:53:35.602Z,1033.61
2019-02-25T07:54:35.593Z,1033.63
2019-02-25T07:55:35.580Z,1033.58
2019-02-25T07:56:35.572Z,1033.59
2019-02-25T07:57:35.557Z,1033.61
2019-02-25T07:58:35.585Z,1033.61
2019-02-25T07:59:35.535Z,1033.60
2019-02-25T08:00:35.522Z,1033.60
2019-02-25T08:01:35.513Z,1033.59
2019-02-25T08:02:35.502Z,1033.60
2019-02-25T08:03:35.488Z,1033.61
2019-02-25T08:04:35.476Z,1033.58
2019-02-25T08:05:35.464Z,1033.60
2019-02-25T08:06:35.459Z,1033.61
2019-02-25T08:07:35.461Z,1033.62
2019-02-25T08:08:35.434Z,1033.57
2019-02-25T08:09:35.419Z,1033.58
2019-02-25T08:10:35.424Z,1033.53
2019-02-25T08:11:35.399Z,1033.60
2019-02-25T08:12:35.392Z,1033.56
2019-02-25T08:13:35.395Z,1033.53
2019-02-25T08:14:35.406Z,1033.57
2019-02-25T08:15:35.410Z,1033.60
2019-02-25T08:16:35.346Z,1033.58
2019-02-25T08:17:35.348Z,1033.53
2019-02-25T08:18:35.356Z,1033.47
2019-02-25T08:19:35.354Z,1033.46
2019-02-25T08:20:35.298Z,1033.47
2019-02-25T08:21:35.285Z,1033.37
2019-02-25T08:22:35.297Z,1033.43
2019-02-25T08:23:35.273Z,1033.43
2019-02-25T08:24:35.250Z,1033.40
2019-02-25T08:25:35.240Z,1033.39
2019-02-25T08:26:35.229Z,1033.37
2019-02-25T08:27:35.218Z,1033.46
2019-02-25T08:28:35.203Z,1033.45
2019-02-25T08:29:35.198Z,1033.37
2019-02-25T08:30:35.187Z,1033.41
2019-02-25T08:31:35.201Z,1033.40
2019-02-25T08:32:35.159Z,1033.35
2019-02-25T08:33:35.147Z,1033.42
2019-02-25T08:34:35.142Z,1033.36
2019-02-25T08:35:35.126Z,1033.43
2019-02-25T08:36:35.111Z,1033.33
2019-02-25T08:37:35.102Z,1033.37
2019-02-25T08:38:35.090Z,1033.34
2019-02-25T08:39:35.078Z,1033.31
2019-02-25T08:40:35.077Z,1033.37
2019-02-25T08:41:35.063Z,1033.41
2019-02-25T08:42:35.052Z,1033.41
2019-02-25T08:43:35.035Z,1033.49
2019-02-25T08:44:35.021Z,1033.49
2019-02-25T08:45:35.012Z,1033.57
2019-02-25T08:46:34.998Z,1033.58
2019-02-25T08:47:34.986Z,1033.55
2019-02-25T08:48:34.976Z,1033.53
2019-02-25T08:49:34.966Z,1033.52
2019-02-25T08:50:34.955Z,1033.53
2019-02-25T08:51:34.945Z,1033.49
2019-02-25T08:52:34.942Z,1033.41
2019-02-25T08:53:34.930Z,1033.45
2019-02-25T08:54:34.914Z,1033.49
2019-02-25T08:55:34.906Z,1033.46
2019-02-25T08:56:34.892Z,1033.54
2019-02-25T08:57:34.877Z,1033.52
2019-02-25T08:58:34.865Z,1033.56
2019-02-25T08:59:34.854Z,1033.53
2019-02-25T09:00:34.846Z,1033.59
2019-02-25T09:01:34.835Z,1033.55
2019-02-25T09:02:34.819Z,1033.56
2019-02-25T09:03:34.806Z,1033.62
2019-02-25T09:04:34.800Z,1033.61
2019-02-25T09:05:34.785Z,1033.61
2019-02-25T09:06:34.777Z,1033.62
2019-02-25T09:07:34.765Z,1033.63
2019-02-25T09:08:34.751Z,1033.65
2019-02-25T09:09:34.739Z,1033.69
2019-02-25T09:10:34.730Z,1033.63
2019-02-25T09:11:34.715Z,1033.62
2019-02-25T09:12:34.707Z,1033.65
2019-02-25T09:13:34.690Z,1033.65
2019-02-25T09:14:34.685Z,1033.59
2019-02-25T09:15:34.669Z,1033.55
2019-02-25T09:16:34.660Z,1033.57
2019-02-25T09:17:34.646Z,1033.53
2019-02-25T09:18:34.647Z,1033.54
2019-02-25T09:19:34.626Z,1033.58
2019-02-25T09:20:34.618Z,1033.58
2019-02-25T09:21:34.604Z,1033.57
2019-02-25T09:22:34.597Z,1033.53
2019-02-25T09:23:34.584Z,1033.57
2019-02-25T09:24:34.569Z,1033.61
2019-02-25T09:25:34.559Z,1033.55
2019-02-25T09:26:34.547Z,1033.54
2019-02-25T09:27:34.534Z,1033.54
2019-02-25T09:28:34.524Z,1033.54
2019-02-25T09:29:34.514Z,1033.57
2019-02-25T09:30:34.503Z,1033.49
2019-02-25T09:31:34.497Z,1033.59
2019-02-25T09:32:34.480Z,1033.56
2019-02-25T09:33:34.470Z,1033.57
2019-02-25T09:34:34.460Z,1033.55
2019-02-25T09:35:34.449Z,1033.55
2019-02-25T09:36:34.437Z,1033.55
2019-02-25T09:37:34.430Z,1033.51
2019-02-25T09:38:36.412Z,1033.52
2019-02-25T09:39:34.400Z,1033.49
2019-02-25T09:40:34.389Z,1033.46
2019-02-25T09:41:34.379Z,1033.51
2019-02-25T09:42:34.384Z,1033.49
2019-02-25T09:43:34.356Z,1033.47
2019-02-25T09:44:34.347Z,1033.47
2019-02-25T09:45:34.336Z,1033.43
2019-02-25T09:46:34.327Z,1033.51
2019-02-25T09:47:34.314Z,1033.49
2019-02-25T09:48:34.304Z,1033.48
2019-02-25T09:49:34.287Z,1033.50
2019-02-25T09:50:34.283Z,1033.44
2019-02-25T09:51:34.266Z,1033.48
2019-02-25T09:52:34.254Z,1033.46
2019-02-25T09:53:34.249Z,1033.49
2019-02-25T09:54:34.229Z,1033.45
2019-02-25T09:55:34.222Z,1033.49
2019-02-25T09:56:34.209Z,1033.44
2019-02-25T09:57:34.196Z,1033.42
2019-02-25T09:58:34.184Z,1033.45
2019-02-25T09:59:34.179Z,1033.41
2019-02-25T10:00:34.182Z,1033.43
2019-02-25T10:01:34.151Z,1033.40
2019-02-25T10:02:34.140Z,1033.43
2019-02-25T10:03:34.130Z,1033.40
2019-02-25T10:04:34.119Z,1033.34
2019-02-25T10:05:34.108Z,1033.30
2019-02-25T10:06:34.099Z,1033.21
2019-02-25T10:07:34.085Z,1033.27
2019-02-25T10:08:34.074Z,1033.20
2019-02-25T10:09:34.062Z,1033.22
2019-02-25T10:10:34.058Z,1033.17
2019-02-25T10:11:34.051Z,1033.16
2019-02-25T10:12:34.029Z,1033.18
2019-02-25T10:13:34.018Z,1033.09
2019-02-25T10:14:34.013Z,1033.11
2019-02-25T10:15:33.997Z,1033.12
2019-02-25T10:16:34.014Z,1033.09
2019-02-25T10:17:33.978Z,1032.98
2019-02-25T10:18:33.962Z,1033.05
2019-02-25T10:19:34.848Z,1033.02
2019-02-25T10:20:33.974Z,1033.03
2019-02-25T10:21:33.936Z,1032.99
2019-02-25T10:22:33.947Z,1033.03
2019-02-25T10:23:33.908Z,1033.05
2019-02-25T10:24:33.909Z,1033.08
2019-02-25T10:25:33.889Z,1033.06
2019-02-25T10:26:33.879Z,1033.04
2019-02-25T10:27:33.865Z,1033.10
2019-02-25T10:28:33.913Z,1033.06
2019-02-25T10:29:33.846Z,1033.05
2019-02-25T10:30:34.032Z,1033.03
2019-02-25T10:31:33.818Z,1033.09
2019-02-25T10:32:33.839Z,1033.07
2019-02-25T10:33:33.795Z,1033.09
2019-02-25T10:34:33.797Z,1033.05
2019-02-25T10:35:33.777Z,1033.05
2019-02-25T10:36:33.806Z,1033.08
2019-02-25T10:37:34.204Z,1033.14
2019-02-25T10:38:33.738Z,1033.08
2019-02-25T10:39:33.730Z,1033.09
2019-02-25T10:40:33.753Z,1033.08
2019-02-25T10:41:33.710Z,1033.09
2019-02-25T10:42:35.582Z,1033.05
2019-02-25T10:43:34.634Z,1033.02
2019-02-25T10:44:34.448Z,1032.99
2019-02-25T10:45:35.093Z,1032.97
2019-02-25T10:46:33.652Z,1032.99
2019-02-25T10:47:33.641Z,1032.91
2019-02-25T10:48:33.673Z,1032.87
2019-02-25T10:49:33.816Z,1032.92
2019-02-25T10:50:35.822Z,1032.90
2019-02-25T10:51:35.118Z,1032.87
2019-02-25T10:52:33.596Z,1032.90
2019-02-25T10:53:33.571Z,1032.85
2019-02-25T10:54:33.562Z,1032.89
2019-02-25T10:55:33.558Z,1032.86
2019-02-25T10:56:33.547Z,1032.91
2019-02-25T10:57:33.529Z,1032.92
2019-02-25T10:58:34.369Z,1032.95
2019-02-25T10:59:34.650Z,1032.88
2019-02-25T11:00:35.036Z,1032.90
2019-02-25T11:01:33.486Z,1032.85
2019-02-25T11:02:33.480Z,1032.84
2019-02-25T11:03:33.462Z,1032.86
2019-02-25T11:04:33.451Z,1032.86
2019-02-25T11:05:33.441Z,1032.82
2019-02-25T11:06:35.504Z,1032.80
2019-02-25T11:07:34.933Z,1032.81
2019-02-25T11:08:35.109Z,1032.83
2019-02-25T11:09:33.396Z,1032.79
2019-02-25T11:10:33.383Z,1032.77
2019-02-25T11:11:33.373Z,1032.71
2019-02-25T11:12:33.363Z,1032.73
2019-02-25T11:13:34.660Z,1032.70
2019-02-25T11:14:35.732Z,1032.70
2019-02-25T11:15:33.337Z,1032.76
2019-02-25T11:16:33.317Z,1032.67
2019-02-25T11:17:33.305Z,1032.66
2019-02-25T11:18:33.298Z,1032.67
2019-02-25T11:19:33.294Z,1032.69
2019-02-25T11:20:35.082Z,1032.69
2019-02-25T11:21:35.198Z,1032.64
2019-02-25T11:22:33.252Z,1032.63
2019-02-25T11:23:33.245Z,1032.59
2019-02-25T11:24:33.230Z,1032.56
2019-02-25T11:25:33.224Z,1032.49
2019-02-25T11:26:35.185Z,1032.43
2019-02-25T11:27:35.334Z,1032.40
2019-02-25T11:28:34.362Z,1032.38
2019-02-25T11:29:33.179Z,1032.46
2019-02-25T11:30:33.165Z,1032.45
2019-02-25T11:31:33.161Z,1032.47
2019-02-25T11:32:33.141Z,1032.51
2019-02-25T11:33:34.366Z,1032.53
2019-02-25T11:34:33.617Z,1032.50
2019-02-25T11:35:34.199Z,1032.52
2019-02-25T11:36:33.099Z,1032.53
2019-02-25T11:37:33.087Z,1032.44
2019-02-25T11:38:36.687Z,1032.43
2019-02-25T11:39:34.921Z,1032.50
2019-02-25T11:40:34.116Z,1032.50
2019-02-25T11:41:34.227Z,1032.58
2019-02-25T11:42:33.037Z,1032.54
2019-02-25T11:43:33.021Z,1032.56
2019-02-25T11:44:33.019Z,1032.54
2019-02-25T11:45:33.003Z,1032.50
2019-02-25T11:46:32.993Z,1032.55
2019-02-25T11:47:32.978Z,1032.53
2019-02-25T11:48:32.968Z,1032.46
2019-02-25T11:49:32.956Z,1032.49
2019-02-25T11:50:32.946Z,1032.39
2019-02-25T11:51:32.941Z,1032.41
2019-02-25T11:52:32.933Z,1032.32
2019-02-25T11:53:32.918Z,1032.35
2019-02-25T11:54:32.911Z,1032.27
2019-02-25T11:55:32.891Z,1032.26
2019-02-25T11:56:32.881Z,1032.28
2019-02-25T11:57:32.871Z,1032.24
2019-02-25T11:58:32.865Z,1032.23
2019-02-25T11:59:32.848Z,1032.27
2019-02-25T12:00:32.838Z,1032.25
2019-02-25T12:01:32.828Z,1032.25
2019-02-25T12:02:32.813Z,1032.21
2019-02-25T12:03:32.804Z,1032.20
2019-02-25T12:04:32.794Z,1032.10
2019-02-25T12:05:32.785Z,1032.02
2019-02-25T12:06:32.770Z,1032.01
2019-02-25T12:07:32.759Z,1032.04
2019-02-25T12:08:32.764Z,1031.98
2019-02-25T12:09:32.742Z,1031.98
2019-02-25T12:10:32.728Z,1031.88
2019-02-25T12:11:32.715Z,1031.87
2019-02-25T12:12:32.704Z,1031.85
2019-02-25T12:13:32.693Z,1031.78
2019-02-25T12:14:32.682Z,1031.81
2019-02-25T12:15:32.669Z,1031.75
2019-02-25T12:16:32.667Z,1031.69
2019-02-25T12:17:32.654Z,1031.67
2019-02-25T12:18:32.637Z,1031.74
2019-02-25T12:19:32.627Z,1031.67
2019-02-25T12:20:32.619Z,1031.68
2019-02-25T12:21:32.604Z,1031.68
2019-02-25T12:22:32.592Z,1031.71
2019-02-25T12:23:32.584Z,1031.67
2019-02-25T12:24:32.571Z,1031.68
2019-02-25T12:25:32.565Z,1031.62
2019-02-25T12:26:32.552Z,1031.59
2019-02-25T12:27:32.537Z,1031.53
2019-02-25T12:28:32.529Z,1031.54
2019-02-25T12:29:32.547Z,1031.52
2019-02-25T12:30:32.505Z,1031.47
2019-02-25T12:31:32.493Z,1031.48
2019-02-25T12:32:32.489Z,1031.41
2019-02-25T12:33:32.472Z,1031.44
2019-02-25T12:34:32.461Z,1031.37
2019-02-25T12:35:32.451Z,1031.32
2019-02-25T12:36:32.445Z,1031.37
2019-02-25T12:37:32.430Z,1031.34
2019-02-25T12:38:32.423Z,1031.33
2019-02-25T12:39:32.409Z,1031.29
2019-02-25T12:40:32.400Z,1031.27
2019-02-25T12:41:32.390Z,1031.22
2019-02-25T12:42:32.373Z,1031.24
2019-02-25T12:43:32.364Z,1031.18
2019-02-25T12:44:32.351Z,1031.16
2019-02-25T12:45:32.341Z,1031.10
2019-02-25T12:46:32.333Z,1031.18
2019-02-25T12:47:32.318Z,1031.12
2019-02-25T12:48:32.314Z,1031.13
2019-02-25T12:49:32.301Z,1031.13
2019-02-25T12:50:32.293Z,1031.14
2019-02-25T12:51:32.280Z,1031.09
2019-02-25T12:52:32.265Z,1031.03
2019-02-25T12:53:32.255Z,1031.02
2019-02-25T12:54:32.245Z,1031.02
2019-02-25T12:55:32.232Z,1030.95
2019-02-25T12:56:32.241Z,1030.98
2019-02-25T12:57:32.264Z,1031.00
2019-02-25T12:58:32.198Z,1030.94
2019-02-25T12:59:32.187Z,1030.97
2019-02-25T13:00:32.190Z,1030.91
2019-02-25T13:01:32.173Z,1030.91
2019-02-25T13:02:32.158Z,1030.89
2019-02-25T13:03:32.148Z,1030.89
2019-02-25T13:04:32.137Z,1030.88
2019-02-25T13:05:32.127Z,1030.91
2019-02-25T13:06:32.116Z,1030.94
2019-02-25T13:07:32.099Z,1030.87
2019-02-25T13:08:32.088Z,1030.95
2019-02-25T13:09:32.079Z,1030.98
2019-02-25T13:10:32.064Z,1030.94
2019-02-25T13:11:32.054Z,1030.98
2019-02-25T13:12:32.045Z,1031.01
2019-02-25T13:13:32.031Z,1030.98
2019-02-25T13:14:32.022Z,1031.05
2019-02-25T13:15:32.010Z,1031.03
2019-02-25T13:16:32.006Z,1031.00
2019-02-25T13:17:31.989Z,1030.99
2019-02-25T13:18:31.981Z,1031.08
2019-02-25T13:19:31.964Z,1031.02
2019-02-25T13:20:31.961Z,1031.00
2019-02-25T13:21:31.942Z,1031.03
2019-02-25T13:22:31.931Z,1031.03
2019-02-25T13:23:31.928Z,1031.06
2019-02-25T13:24:32.695Z,1031.04
2019-02-25T13:25:31.896Z,1031.05
2019-02-25T13:26:32.272Z,1031.04
2019-02-25T13:27:31.878Z,1031.02
2019-02-25T13:28:33.563Z,1030.98
2019-02-25T13:29:31.865Z,1031.00
2019-02-25T13:30:31.844Z,1031.05
2019-02-25T13:31:31.830Z,1031.07
2019-02-25T13:32:31.819Z,1031.07
2019-02-25T13:33:31.817Z,1031.14
2019-02-25T13:34:31.796Z,1031.05
2019-02-25T13:35:31.787Z,1031.12
2019-02-25T13:36:31.773Z,1031.13
2019-02-25T13:37:31.762Z,1031.08
2019-02-25T13:38:31.781Z,1031.06
2019-02-25T13:39:31.739Z,1031.08
2019-02-25T13:40:31.734Z,1031.12
2019-02-25T13:41:31.716Z,1031.16
2019-02-25T13:42:31.706Z,1031.14
2019-02-25T13:43:31.694Z,1031.11
2019-02-25T13:44:31.682Z,1031.08
2019-02-25T13:45:31.676Z,1031.10
2019-02-25T13:46:31.666Z,1031.13
2019-02-25T13:47:31.651Z,1031.17
2019-02-25T13:48:31.638Z,1031.21
2019-02-25T13:49:31.627Z,1031.16
2019-02-25T13:50:31.618Z,1031.15
2019-02-25T13:51:31.606Z,1031.14
2019-02-25T13:52:31.595Z,1031.12
2019-02-25T13:53:31.587Z,1031.09
2019-02-25T13:54:31.572Z,1031.02
2019-02-25T13:55:31.560Z,1031.07
2019-02-25T13:56:31.558Z,1031.04
2019-02-25T13:57:31.554Z,1031.04
2019-02-25T13:58:31.559Z,1031.03
2019-02-25T13:59:31.571Z,1031.03
2019-02-25T14:00:31.506Z,1031.04
2019-02-25T14:01:31.509Z,1031.05
2019-02-25T14:02:31.508Z,1031.06
2019-02-25T14:03:31.512Z,1031.01
2019-02-25T14:04:31.514Z,1030.98
2019-02-25T14:05:31.458Z,1031.00
2019-02-25T14:06:31.462Z,1030.98
2019-02-25T14:07:31.429Z,1030.95
2019-02-25T14:08:31.422Z,1030.90
2019-02-25T14:09:32.639Z,1030.91
2019-02-25T14:10:31.404Z,1030.86
2019-02-25T14:11:31.409Z,1030.86
2019-02-25T14:12:31.382Z,1030.81
2019-02-25T14:13:31.372Z,1030.76
2019-02-25T14:14:31.364Z,1030.82
2019-02-25T14:15:31.354Z,1030.74
2019-02-25T14:16:31.342Z,1030.71
2019-02-25T14:17:31.331Z,1030.73
2019-02-25T14:18:31.322Z,1030.70
2019-02-25T14:19:31.304Z,1030.70
2019-02-25T14:20:31.295Z,1030.72
2019-02-25T14:21:31.765Z,1030.63
2019-02-25T14:22:31.271Z,1030.65
2019-02-25T14:23:31.265Z,1030.68
2019-02-25T14:24:31.252Z,1030.61
2019-02-25T14:25:31.240Z,1030.56
2019-02-25T14:26:31.232Z,1030.55
2019-02-25T14:27:31.216Z,1030.55
2019-02-25T14:28:31.204Z,1030.57
2019-02-25T14:29:31.192Z,1030.54
2019-02-25T14:30:33.413Z,1030.52
2019-02-25T14:31:31.171Z,1030.55
2019-02-25T14:32:31.159Z,1030.49
2019-02-25T14:33:35.582Z,1030.53
2019-02-25T14:34:31.135Z,1030.55
2019-02-25T14:35:31.129Z,1030.55
2019-02-25T14:36:31.114Z,1030.45
2019-02-25T14:37:31.101Z,1030.48
2019-02-25T14:38:32.294Z,1030.40
2019-02-25T14:39:32.977Z,1030.37
2019-02-25T14:40:32.558Z,1030.38
2019-02-25T14:41:31.054Z,1030.35
2019-02-25T14:42:33.513Z,1030.30
2019-02-25T14:43:31.031Z,1030.33
2019-02-25T14:44:33.202Z,1030.33
2019-02-25T14:45:32.138Z,1030.35
2019-02-25T14:46:31.000Z,1030.38
2019-02-25T14:47:36.749Z,1030.29
2019-02-25T14:48:55.454Z,1030.29
2019-02-25T14:49:55.444Z,1030.27
2019-02-25T14:50:55.427Z,1030.26
2019-02-25T14:51:55.422Z,1030.30
2019-02-25T14:52:55.415Z,1030.29
2019-02-25T14:53:55.424Z,1030.33
2019-02-25T14:54:55.383Z,1030.31
2019-02-25T14:55:58.187Z,1030.31
2019-02-25T14:56:57.143Z,1030.28
2019-02-25T14:57:55.432Z,1030.29
2019-02-25T14:58:55.342Z,1030.31
2019-02-25T14:59:55.329Z,1030.30
2019-02-25T15:00:55.319Z,1030.32
2019-02-25T15:01:56.908Z,1030.27
2019-02-25T15:02:55.295Z,1030.22
2019-02-25T15:03:55.981Z,1030.24
2019-02-25T15:04:55.272Z,1030.24
2019-02-25T15:05:56.976Z,1030.24
2019-02-25T15:06:55.248Z,1030.26
2019-02-25T15:07:55.240Z,1030.26
2019-02-25T15:08:55.228Z,1030.18
2019-02-25T15:09:55.218Z,1030.25
2019-02-25T15:10:57.712Z,1030.17
2019-02-25T15:11:55.898Z,1030.17
2019-02-25T15:12:58.743Z,1030.20
2019-02-25T15:13:55.175Z,1030.20
2019-02-25T15:14:55.161Z,1030.22
2019-02-25T15:15:55.149Z,1030.28
2019-02-25T15:16:56.495Z,1030.25
2019-02-25T15:17:55.127Z,1030.23
2019-02-25T15:18:55.115Z,1030.18
2019-02-25T15:19:55.103Z,1030.19
2019-02-25T15:20:56.444Z,1030.19
2019-02-25T15:21:56.440Z,1030.15
2019-02-25T15:22:55.070Z,1030.14
2019-02-25T15:23:55.060Z,1030.18
2019-02-25T15:24:55.066Z,1030.20
2019-02-25T15:25:55.037Z,1030.22
2019-02-25T15:26:57.215Z,1030.16
2019-02-25T15:27:55.038Z,1030.22
2019-02-25T15:28:56.658Z,1030.19
2019-02-25T15:29:55.002Z,1030.17
2019-02-25T15:30:54.980Z,1030.20
2019-02-25T15:31:56.610Z,1030.22
2019-02-25T15:32:58.412Z,1030.20
2019-02-25T15:33:54.967Z,1030.23
2019-02-25T15:34:56.785Z,1030.25
2019-02-25T15:35:54.926Z,1030.23
2019-02-25T15:36:56.445Z,1030.29
2019-02-25T15:37:56.040Z,1030.31
2019-02-25T15:38:54.892Z,1030.40
2019-02-25T15:39:55.880Z,1030.43
2019-02-25T15:40:56.214Z,1030.42
2019-02-25T15:41:55.071Z,1030.43
2019-02-25T15:42:54.851Z,1030.38
2019-02-25T15:43:57.894Z,1030.43
2019-02-25T15:44:55.545Z,1030.39
2019-02-25T15:45:54.815Z,1030.41
2019-02-25T15:46:54.804Z,1030.40
2019-02-25T15:47:55.540Z,1030.45
2019-02-25T15:48:54.789Z,1030.45
2019-02-25T15:49:55.336Z,1030.46
2019-02-25T15:50:55.463Z,1030.43
2019-02-25T15:51:54.750Z,1030.38
2019-02-25T15:52:54.740Z,1030.44
2019-02-25T15:53:55.784Z,1030.43
2019-02-25T15:54:54.717Z,1030.44
2019-02-25T15:55:57.193Z,1030.44
2019-02-25T15:56:54.696Z,1030.40
2019-02-25T15:57:54.683Z,1030.41
2019-02-25T15:58:54.674Z,1030.40
2019-02-25T15:59:54.662Z,1030.40
2019-02-25T16:00:54.651Z,1030.36
2019-02-25T16:01:54.646Z,1030.40
2019-02-25T16:02:54.633Z,1030.43
2019-02-25T16:03:58.122Z,1030.44
2019-02-25T16:05:19.086Z,1030.45
2019-02-25T16:06:19.074Z,1030.45
2019-02-25T16:07:19.063Z,1030.44
2019-02-25T16:08:21.063Z,1030.42
2019-02-25T16:09:21.526Z,1030.44
2019-02-25T16:10:19.032Z,1030.46
2019-02-25T16:11:20.811Z,1030.44
2019-02-25T16:12:19.009Z,1030.45
2019-02-25T16:13:19.000Z,1030.41
2019-02-25T16:14:20.907Z,1030.43
2019-02-25T16:15:18.976Z,1030.42
2019-02-25T16:16:19.962Z,1030.41
2019-02-25T16:17:18.952Z,1030.39
2019-02-25T16:18:18.949Z,1030.31
2019-02-25T16:19:18.932Z,1030.36
2019-02-25T16:20:19.627Z,1030.33
2019-02-25T16:21:18.910Z,1030.29
2019-02-25T16:22:18.895Z,1030.24
2019-02-25T16:23:20.180Z,1030.24
2019-02-25T16:24:18.886Z,1030.24
2019-02-25T16:25:18.861Z,1030.24
2019-02-25T16:26:20.115Z,1030.25